Time;durP1;ratioP1;P1;durP2;ratioP2;P2;SDS_P1;SDS_P2;PMS_P1;PMS_P2;Temp;Humidity;BMP_temperature;BMP_pressure;BME280_temperature;BME280_humidity;BME280_pressure;Samples;Min_cycle;Max_cycle;Signal;HPM_P1;HPM_P2
2023/03/26 00:00:08;;;;;;;75.67;10.17;;;9.20;99.90;;;;;;4949641;28;38156;-77
2023/03/26 00:02:38;;;;;;;61.13;8.60;;;9.20;99.90;;;;;;4929297;28;37834;-78
2023/03/26 00:05:06;;;;;;;82.33;10.33;;;9.20;99.90;;;;;;4927236;28;38941;-78
2023/03/26 00:07:32;;;;;;;70.93;8.90;;;9.30;99.90;;;;;;4948650;28;38892;-77
2023/03/26 00:09:58;;;;;;;74.97;10.93;;;9.20;99.90;;;;;;4934738;28;36203;-78
2023/03/26 00:12:25;;;;;;;67.63;10.27;;;9.20;99.90;;;;;;4932724;28;38396;-77
2023/03/26 00:14:51;;;;;;;66.50;9.10;;;9.20;99.90;;;;;;4946521;28;38895;-78
2023/03/26 00:17:17;;;;;;;69.90;9.30;;;9.20;99.90;;;;;;4930340;28;39388;-78
2023/03/26 00:19:44;;;;;;;85.67;10.17;;;9.20;99.90;;;;;;4935169;28;36188;-78
2023/03/26 00:22:12;;;;;;;75.53;8.60;;;9.20;99.90;;;;;;4943418;28;39774;-77
2023/03/26 00:24:39;;;;;;;64.83;9.57;;;9.20;99.90;;;;;;4950764;28;37913;-78
2023/03/26 00:27:10;;;;;;;74.17;9.17;;;9.20;99.90;;;;;;4940988;28;38838;-77
2023/03/26 00:29:38;;;;;;;69.07;9.80;;;9.20;99.90;;;;;;4940772;28;37153;-77
2023/03/26 00:32:05;;;;;;;61.60;8.23;;;9.20;99.90;;;;;;4950594;28;38777;-78
2023/03/26 00:34:33;;;;;;;74.70;9.37;;;9.20;99.90;;;;;;4940981;28;37195;-77
2023/03/26 00:37:01;;;;;;;67.67;11.23;;;9.20;99.90;;;;;;4959648;28;37583;-78
2023/03/26 00:39:28;;;;;;;64.60;9.10;;;9.20;99.90;;;;;;4940035;28;47260;-78
2023/03/26 00:41:54;;;;;;;65.23;8.70;;;9.10;99.90;;;;;;4943707;28;39175;-77
2023/03/26 00:44:21;;;;;;;75.33;8.53;;;9.00;99.90;;;;;;4934911;28;38356;-78
2023/03/26 00:46:47;;;;;;;68.13;8.20;;;9.00;99.90;;;;;;4949183;28;38351;-78
2023/03/26 00:49:13;;;;;;;74.00;10.03;;;8.90;99.90;;;;;;4932958;28;36344;-77
2023/03/26 00:51:40;;;;;;;64.77;9.67;;;8.80;99.90;;;;;;4942862;28;40128;-78
2023/03/26 00:54:07;;;;;;;63.63;8.43;;;8.80;99.90;;;;;;4937631;28;37382;-78
2023/03/26 00:56:34;;;;;;;71.33;9.90;;;8.80;99.90;;;;;;4941640;28;37036;-77
2023/03/26 00:59:00;;;;;;;67.47;8.93;;;8.80;99.90;;;;;;4937008;28;36143;-78
2023/03/26 01:01:36;;;;;;;60.57;8.67;;;8.80;99.90;;;;;;5339746;23;47294;-78
2023/03/26 01:04:29;;;;;;;58.33;8.60;;;8.80;99.90;;;;;;4946084;28;36954;-78
2023/03/26 01:06:57;;;;;;;63.25;8.55;;;8.80;99.90;;;;;;4965094;28;37233;-78
2023/03/26 01:09:31;;;;;;;55.60;9.17;;;8.90;99.90;;;;;;4948735;28;36161;-78
2023/03/26 01:12:01;;;;;;;74.00;7.93;;;8.90;99.90;;;;;;4961245;28;39312;-78
2023/03/26 01:14:30;;;;;;;73.83;11.07;;;9.00;99.90;;;;;;4966037;28;47466;-78
2023/03/26 01:16:59;;;;;;;66.47;10.20;;;9.00;99.90;;;;;;4966178;28;38755;-78
2023/03/26 01:19:43;;;;;;;66.80;9.50;;;9.00;99.90;;;;;;4944845;28;36198;-78
2023/03/26 01:22:13;;;;;;;77.37;10.27;;;9.00;99.90;;;;;;4928929;29;38230;-78
2023/03/26 01:24:41;;;;;;;69.33;9.97;;;9.00;99.90;;;;;;4932768;28;37849;-78
2023/03/26 01:27:16;;;;;;;61.10;9.30;;;8.90;99.90;;;;;;4949716;28;38127;-79
2023/03/26 01:30:16;;;;;;;68.60;10.23;;;8.80;99.90;;;;;;4931930;28;36376;-78
2023/03/26 01:33:12;;;;;;;47.50;7.23;;;8.80;99.90;;;;;;4950610;28;47363;-78
2023/03/26 01:35:59;;;;;;;63.23;8.63;;;8.80;99.90;;;;;;4946528;28;47089;-78
2023/03/26 01:38:58;;;;;;;60.53;9.37;;;8.80;99.90;;;;;;4951874;28;38191;-78
2023/03/26 01:41:42;;;;;;;69.03;8.97;;;8.80;99.90;;;;;;4965118;28;36254;-78
2023/03/26 01:44:30;;;;;;;70.87;7.63;;;8.80;99.90;;;;;;4937263;28;38753;-78
2023/03/26 01:46:58;;;;;;;74.27;9.30;;;8.80;99.90;;;;;;4949301;28;37308;-78
2023/03/26 01:49:27;;;;;;;57.80;8.03;;;8.80;99.90;;;;;;4933521;28;38067;-78
2023/03/26 01:51:55;;;;;;;48.70;7.80;;;8.60;99.90;;;;;;4933191;28;36528;-77
2023/03/26 01:54:25;;;;;;;61.93;9.13;;;8.60;99.90;;;;;;4947564;28;39162;-78
2023/03/26 01:57:15;;;;;;;58.07;7.60;;;8.70;99.90;;;;;;4951399;28;37221;-78
2023/03/26 01:59:54;;;;;;;49.53;7.23;;;8.70;99.90;;;;;;4955816;28;47188;-78
2023/03/26 02:02:41;;;;;;;51.77;7.40;;;8.60;99.90;;;;;;4946722;28;35894;-78
2023/03/26 02:05:16;;;;;;;61.53;8.33;;;8.50;99.90;;;;;;4948289;28;37929;-78
2023/03/26 02:08:15;;;;;;;54.73;8.17;;;8.50;99.90;;;;;;4951313;28;37556;-78
2023/03/26 02:10:44;;;;;;;54.43;9.40;;;8.40;99.90;;;;;;4962274;28;47361;-78
2023/03/26 02:13:12;;;;;;;46.57;7.33;;;8.40;99.90;;;;;;4956353;28;36940;-78
2023/03/26 02:15:39;;;;;;;51.00;7.57;;;8.40;99.90;;;;;;4951580;28;37570;-78
2023/03/26 02:18:09;;;;;;;42.80;6.60;;;8.30;99.90;;;;;;4944863;28;37648;-78
2023/03/26 02:20:36;;;;;;;48.63;7.87;;;8.30;99.90;;;;;;4946272;28;38034;-78
2023/03/26 02:23:02;;;;;;;53.50;8.60;;;8.20;99.90;;;;;;4947033;28;36244;-77
2023/03/26 02:25:29;;;;;;;43.03;7.40;;;8.20;99.90;;;;;;4944782;28;37702;-78
2023/03/26 02:27:55;;;;;;;59.13;10.03;;;8.10;99.90;;;;;;4945237;28;39053;-78
2023/03/26 02:30:28;;;;;;;41.60;6.13;;;8.10;99.90;;;;;;4961188;28;37149;-77
2023/03/26 02:32:57;;;;;;;53.50;7.23;;;8.10;99.90;;;;;;4941148;28;36588;-78
2023/03/26 02:35:24;;;;;;;54.33;7.57;;;8.00;99.90;;;;;;4945118;28;37713;-77
2023/03/26 02:37:50;;;;;;;44.97;8.10;;;8.00;99.90;;;;;;4955342;28;37453;-78
2023/03/26 02:40:19;;;;;;;46.50;7.13;;;8.00;99.90;;;;;;4949628;28;38038;-78
2023/03/26 02:42:47;;;;;;;50.67;8.87;;;8.00;99.90;;;;;;4946914;28;36946;-77
2023/03/26 02:45:13;;;;;;;49.23;8.37;;;8.00;99.90;;;;;;4948568;28;39195;-78
2023/03/26 02:47:39;;;;;;;51.43;7.70;;;8.00;99.90;;;;;;4947371;28;37522;-78
2023/03/26 02:50:05;;;;;;;50.23;8.37;;;8.00;99.90;;;;;;4954565;28;38179;-77
2023/03/26 02:52:32;;;;;;;61.30;9.70;;;8.10;99.90;;;;;;4969478;28;36294;-78
2023/03/26 02:54:58;;;;;;;54.63;9.23;;;8.10;99.90;;;;;;4976170;28;39759;-78
2023/03/26 02:57:25;;;;;;;53.03;8.47;;;8.10;99.90;;;;;;4973131;28;38511;-79
2023/03/26 02:59:51;;;;;;;55.03;9.03;;;8.10;99.90;;;;;;4977340;28;38338;-77
2023/03/26 03:02:18;;;;;;;55.03;7.97;;;8.10;99.90;;;;;;4967395;28;37214;-78
2023/03/26 03:04:44;;;;;;;47.30;8.83;;;8.10;99.90;;;;;;4954713;28;37749;-78
2023/03/26 03:07:13;;;;;;;47.87;9.47;;;8.10;99.90;;;;;;4968052;28;39423;-78
2023/03/26 03:09:40;;;;;;;48.37;8.50;;;8.10;99.90;;;;;;4968310;28;37999;-79
2023/03/26 03:12:06;;;;;;;54.93;7.80;;;8.10;99.90;;;;;;4949196;28;37432;-79
2023/03/26 03:14:32;;;;;;;55.73;8.10;;;8.10;99.90;;;;;;4951058;28;37521;-78
2023/03/26 03:16:58;;;;;;;46.40;8.60;;;8.10;99.90;;;;;;4948397;28;37217;-78
2023/03/26 03:19:25;;;;;;;47.97;9.07;;;8.10;99.90;;;;;;4965298;28;38969;-78
2023/03/26 03:21:51;;;;;;;54.83;9.77;;;8.10;99.90;;;;;;4953780;28;35997;-78
2023/03/26 03:24:17;;;;;;;54.50;8.17;;;8.20;99.90;;;;;;4977401;28;37843;-78
2023/03/26 03:26:44;;;;;;;47.07;9.17;;;8.20;99.90;;;;;;4949873;28;37492;-78
2023/03/26 03:29:11;;;;;;;50.67;8.03;;;8.20;99.90;;;;;;4950771;28;37319;-78
2023/03/26 03:31:37;;;;;;;43.43;9.40;;;8.20;99.90;;;;;;4961034;28;37083;-79
2023/03/26 03:34:04;;;;;;;61.27;10.63;;;8.30;99.90;;;;;;4967575;28;38914;-79
2023/03/26 03:36:32;;;;;;;37.20;7.30;;;8.30;99.90;;;;;;4943873;28;37185;-78
2023/03/26 03:39:01;;;;;;;58.07;9.57;;;8.30;99.90;;;;;;4960938;28;36886;-79
2023/03/26 03:41:28;;;;;;;54.10;8.87;;;8.30;99.90;;;;;;4956090;28;47179;-78
2023/03/26 03:43:54;;;;;;;51.13;8.70;;;8.30;99.90;;;;;;4969292;28;39796;-78
2023/03/26 03:46:20;;;;;;;48.27;8.30;;;8.40;99.90;;;;;;4967116;28;39484;-78
2023/03/26 03:48:48;;;;;;;50.90;8.40;;;8.40;99.90;;;;;;4950495;28;38919;-78
2023/03/26 03:51:17;;;;;;;41.03;8.80;;;8.40;99.90;;;;;;4950803;28;37442;-79
2023/03/26 03:53:44;;;;;;;45.03;7.93;;;8.40;99.90;;;;;;4963391;28;38047;-79
2023/03/26 03:56:13;;;;;;;43.07;7.50;;;8.40;99.90;;;;;;4954862;28;38317;-78
2023/03/26 03:58:40;;;;;;;37.67;7.50;;;8.40;99.90;;;;;;4952734;28;38788;-78
2023/03/26 04:01:06;;;;;;;40.70;7.03;;;8.40;99.90;;;;;;4945946;28;36489;-78
2023/03/26 04:03:37;;;;;;;43.23;6.87;;;8.50;99.90;;;;;;4969735;28;36821;-78
2023/03/26 04:06:09;;;;;;;36.57;6.80;;;8.40;99.90;;;;;;4949451;28;37930;-78
2023/03/26 04:08:36;;;;;;;;;;;8.50;99.90;;;;;;4969354;28;38146;-79
2023/03/26 04:11:02;;;;;;;31.53;6.30;;;8.50;99.90;;;;;;4956482;28;37640;-79
2023/03/26 04:13:28;;;;;;;47.53;7.60;;;8.50;99.90;;;;;;4949121;28;38850;-78
2023/03/26 04:15:55;;;;;;;35.23;6.53;;;8.50;99.90;;;;;;4950717;28;39039;-79
2023/03/26 04:18:22;;;;;;;32.90;6.30;;;8.50;99.90;;;;;;4951951;28;38012;-79
2023/03/26 04:20:48;;;;;;;29.63;6.90;;;8.50;99.90;;;;;;4950079;28;36976;-78
2023/03/26 04:23:16;;;;;;;33.27;6.63;;;8.50;99.90;;;;;;4954085;28;39262;-78
2023/03/26 04:25:47;;;;;;;32.20;6.20;;;8.50;99.90;;;;;;4974475;28;37287;-78
2023/03/26 04:28:32;;;;;;;28.70;6.37;;;8.40;99.90;;;;;;4957919;28;36847;-78
2023/03/26 04:31:00;;;;;;;38.47;8.30;;;8.40;99.90;;;;;;4951491;28;36115;-78
2023/03/26 04:33:32;;;;;;;36.13;6.37;;;8.40;99.90;;;;;;4972195;28;47313;-78
2023/03/26 04:36:01;;;;;;;37.77;6.73;;;8.40;99.90;;;;;;4970697;28;39187;-78
2023/03/26 04:38:36;;;;;;;33.33;6.17;;;8.40;99.90;;;;;;4956031;28;47259;-78
2023/03/26 04:41:06;;;;;;;34.63;6.10;;;8.40;99.90;;;;;;4945399;28;36095;-78
2023/03/26 04:43:35;;;;;;;36.83;7.33;;;8.40;99.90;;;;;;4949371;28;38009;-78
2023/03/26 04:46:02;;;;;;;38.00;7.63;;;8.40;99.90;;;;;;4967418;28;39392;-78
2023/03/26 04:48:29;;;;;;;28.83;6.07;;;8.30;99.90;;;;;;4952803;28;37461;-78
2023/03/26 04:50:56;;;;;;;32.90;7.17;;;8.30;99.90;;;;;;4957431;28;35812;-78
2023/03/26 04:53:24;;;;;;;36.10;6.90;;;8.20;99.90;;;;;;4948664;28;37433;-78
2023/03/26 04:56:06;;;;;;;29.63;6.17;;;8.20;99.90;;;;;;4958695;28;38080;-78
2023/03/26 04:58:32;;;;;;;38.53;7.43;;;8.20;99.90;;;;;;4952807;28;47210;-78
2023/03/26 05:01:00;;;;;;;28.70;6.87;;;8.20;99.90;;;;;;4958342;28;37526;-80
2023/03/26 05:03:31;;;;;;;34.73;7.90;;;8.20;99.90;;;;;;4961683;28;37851;-79
2023/03/26 05:05:59;;;;;;;32.50;7.20;;;8.10;99.90;;;;;;4959747;28;38069;-79
2023/03/26 05:08:27;;;;;;;33.27;6.50;;;8.10;99.90;;;;;;4948966;28;39043;-79
2023/03/26 05:10:55;;;;;;;28.83;7.47;;;8.10;99.90;;;;;;4964794;28;37636;-80
2023/03/26 05:13:22;;;;;;;44.67;7.83;;;8.00;99.90;;;;;;4950164;28;37354;-77
2023/03/26 05:15:49;;;;;;;30.73;7.67;;;8.00;99.90;;;;;;4956548;28;37588;-79
2023/03/26 05:18:15;;;;;;;35.53;7.33;;;8.00;99.90;;;;;;4953363;28;38744;-77
2023/03/26 05:20:42;;;;;;;35.43;8.37;;;8.00;99.90;;;;;;4950495;28;37719;-79
2023/03/26 05:23:09;;;;;;;36.17;7.83;;;8.00;99.90;;;;;;4962288;28;39519;-77
2023/03/26 05:25:35;;;;;;;41.50;7.53;;;8.00;99.90;;;;;;4955459;28;38382;-78
2023/03/26 05:28:02;;;;;;;46.90;8.63;;;8.00;99.90;;;;;;4947724;28;37918;-77
2023/03/26 05:30:28;;;;;;;47.93;8.23;;;8.00;99.90;;;;;;4951209;28;47070;-78
2023/03/26 05:32:55;;;;;;;37.63;8.47;;;8.00;99.90;;;;;;4950152;28;39166;-78
2023/03/26 05:35:21;;;;;;;30.67;7.80;;;8.00;99.90;;;;;;4950883;28;37564;-78
2023/03/26 05:37:50;;;;;;;39.83;7.57;;;8.00;99.90;;;;;;4952981;28;37275;-78
2023/03/26 05:40:16;;;;;;;35.83;6.53;;;8.00;99.90;;;;;;4954790;28;36321;-78
2023/03/26 05:42:43;;;;;;;42.77;8.17;;;8.00;99.90;;;;;;4952283;28;38910;-78
2023/03/26 05:45:11;;;;;;;46.77;8.40;;;8.10;99.90;;;;;;4960847;28;38404;-78
2023/03/26 05:47:37;;;;;;;32.13;7.70;;;8.10;99.90;;;;;;4953109;28;38217;-78
2023/03/26 05:50:06;;;;;;;36.40;7.93;;;8.10;99.90;;;;;;4966392;28;36067;-78
2023/03/26 05:52:32;;;;;;;34.43;7.30;;;8.20;99.90;;;;;;4950963;28;47008;-78
2023/03/26 05:54:58;;;;;;;30.97;6.73;;;8.20;99.90;;;;;;4950469;28;37279;-78
2023/03/26 05:57:27;;;;;;;37.27;7.23;;;8.10;99.90;;;;;;4949640;28;38414;-78
2023/03/26 05:59:55;;;;;;;40.53;7.87;;;8.20;99.90;;;;;;4952551;28;36111;-78
2023/03/26 06:02:22;;;;;;;27.17;6.40;;;8.10;99.90;;;;;;4962400;28;38607;-78
2023/03/26 06:04:49;;;;;;;35.43;8.13;;;8.10;99.90;;;;;;4955617;28;38998;-78
2023/03/26 06:07:16;;;;;;;39.87;7.53;;;8.20;99.90;;;;;;4953057;28;39101;-78
2023/03/26 06:09:43;;;;;;;37.47;7.67;;;8.20;99.90;;;;;;4952558;28;36120;-77
2023/03/26 06:12:10;;;;;;;35.93;9.10;;;8.20;99.90;;;;;;4945634;28;36015;-79
2023/03/26 06:14:36;;;;;;;32.87;7.47;;;8.30;99.90;;;;;;4961097;28;37411;-78
2023/03/26 06:17:03;;;;;;;37.30;8.57;;;8.20;99.90;;;;;;4952990;28;38418;-79
2023/03/26 06:19:29;;;;;;;40.07;7.83;;;8.20;99.90;;;;;;4972280;28;38168;-78
2023/03/26 06:21:55;;;;;;;35.53;8.37;;;8.20;99.90;;;;;;4970934;28;36953;-79
2023/03/26 06:24:21;;;;;;;33.87;7.13;;;8.20;99.90;;;;;;4957492;28;38326;-78
2023/03/26 06:26:47;;;;;;;32.23;6.60;;;8.20;99.90;;;;;;4970736;28;35466;-79
2023/03/26 06:29:14;;;;;;;35.50;7.90;;;8.20;99.90;;;;;;4974948;28;37421;-78
2023/03/26 06:31:40;;;;;;;40.23;7.53;;;8.20;99.90;;;;;;4974447;28;38895;-79
2023/03/26 06:34:07;;;;;;;31.67;7.70;;;8.30;99.90;;;;;;4961658;28;38095;-79
2023/03/26 06:36:33;;;;;;;37.10;8.60;;;8.30;99.90;;;;;;4957868;28;36970;-78
2023/03/26 06:38:59;;;;;;;33.10;8.10;;;8.30;99.90;;;;;;4958241;28;37138;-79
2023/03/26 06:41:25;;;;;;;36.33;7.77;;;8.30;99.90;;;;;;4954882;28;38050;-78
2023/03/26 06:43:51;;;;;;;26.50;7.90;;;8.30;99.90;;;;;;4959321;28;37556;-79
2023/03/26 06:46:19;;;;;;;27.10;7.63;;;8.30;99.90;;;;;;4956224;28;37299;-78
2023/03/26 06:48:46;;;;;;;28.80;7.67;;;8.30;99.90;;;;;;4947170;28;35991;-78
2023/03/26 06:51:12;;;;;;;27.23;8.17;;;8.30;99.90;;;;;;4963359;28;37934;-79
2023/03/26 06:53:38;;;;;;;20.40;7.33;;;8.30;99.90;;;;;;4972978;28;38268;-79
2023/03/26 06:56:05;;;;;;;33.73;8.73;;;8.40;99.90;;;;;;4969752;28;38497;-78
2023/03/26 06:58:31;;;;;;;28.27;6.47;;;8.30;99.90;;;;;;4959233;28;37352;-79
2023/03/26 07:00:57;;;;;;;26.83;6.83;;;8.40;99.90;;;;;;4975154;28;39856;-79
2023/03/26 07:03:24;;;;;;;23.70;6.90;;;8.40;99.90;;;;;;4945170;28;37680;-78
2023/03/26 07:05:50;;;;;;;29.27;7.37;;;8.40;99.90;;;;;;4942055;28;37938;-80
2023/03/26 07:08:16;;;;;;;35.73;7.40;;;8.40;99.90;;;;;;4943628;28;36150;-78
2023/03/26 07:10:42;;;;;;;36.03;9.30;;;8.50;99.90;;;;;;4946627;28;37499;-78
2023/03/26 07:13:09;;;;;;;25.97;6.77;;;8.50;99.90;;;;;;4947766;28;39077;-79
2023/03/26 07:15:35;;;;;;;28.60;7.97;;;8.60;99.90;;;;;;4954020;28;36890;-80
2023/03/26 07:18:01;;;;;;;24.07;8.47;;;8.60;99.90;;;;;;4970081;28;35793;-79
2023/03/26 07:20:28;;;;;;;20.07;6.50;;;8.70;99.90;;;;;;4949595;28;46405;-79
2023/03/26 07:22:54;;;;;;;27.80;7.83;;;8.70;99.90;;;;;;4952082;28;37148;-78
2023/03/26 07:25:20;;;;;;;27.00;7.30;;;8.70;99.90;;;;;;4948049;28;36978;-79
2023/03/26 07:28:16;;;;;;;23.70;7.50;;;8.60;99.90;;;;;;4948142;28;37535;-79
2023/03/26 07:31:26;;;;;;;25.47;7.13;;;8.70;99.90;;;;;;4943351;28;47539;-79
2023/03/26 07:34:02;;;;;;;21.57;7.70;;;8.80;99.90;;;;;;4939659;28;47256;-79
2023/03/26 07:36:36;;;;;;;26.83;9.03;;;8.90;99.90;;;;;;4954652;28;46111;-78
2023/03/26 07:39:27;;;;;;;27.37;7.33;;;8.90;99.90;;;;;;4940202;28;36311;-79
2023/03/26 07:42:20;;;;;;;30.57;8.67;;;9.00;99.90;;;;;;4962337;28;37680;-79
2023/03/26 07:44:54;;;;;;;;;;;8.90;99.90;;;;;;4949040;28;47194;-78
2023/03/26 07:47:33;;;;;;;23.37;8.70;;;8.90;99.90;;;;;;4955732;28;38315;-79
2023/03/26 07:50:00;;;;;;;26.27;8.90;;;9.00;99.90;;;;;;4944765;28;37208;-79
2023/03/26 07:52:37;;;;;;;26.53;8.23;;;9.10;99.90;;;;;;4939812;28;38559;-80
2023/03/26 07:55:03;;;;;;;36.85;10.05;;;9.10;99.90;;;;;;4942980;28;38394;-78
2023/03/26 07:57:48;;;;;;;32.97;9.70;;;9.20;99.90;;;;;;4944990;28;47963;-78
2023/03/26 08:00:39;;;;;;;27.90;9.90;;;9.20;99.90;;;;;;4943382;28;36290;-79
2023/03/26 08:03:14;;;;;;;31.33;8.47;;;9.10;99.90;;;;;;4943445;28;47258;-79
2023/03/26 08:06:05;;;;;;;20.65;7.30;;;9.10;99.90;;;;;;4965358;28;38003;-77
2023/03/26 08:08:42;;;;;;;16.00;5.30;;;8.90;99.90;;;;;;4967952;28;49668;-79
2023/03/26 08:11:21;;;;;;;15.13;4.50;;;8.90;99.90;;;;;;4963630;28;36464;-79
2023/03/26 08:14:21;;;;;;;17.37;5.63;;;8.80;99.90;;;;;;4945119;28;39297;-78
2023/03/26 08:17:00;;;;;;;15.47;5.00;;;8.80;99.90;;;;;;4964333;28;47355;-78
2023/03/26 08:19:56;;;;;;;13.57;4.23;;;9.00;99.90;;;;;;4955105;28;36973;-79
2023/03/26 08:22:33;;;;;;;14.37;4.57;;;8.90;99.90;;;;;;4948025;28;36283;-79
2023/03/26 08:25:43;;;;;;;10.37;3.50;;;9.00;99.90;;;;;;4948892;28;37567;-78
2023/03/26 08:28:24;;;;;;;11.23;3.87;;;8.90;99.90;;;;;;4884328;28;47317;-79
2023/03/26 08:30:53;;;;;;;12.47;3.80;;;8.80;99.90;;;;;;4958208;28;39503;-78
2023/03/26 08:33:21;;;;;;;16.23;4.00;;;8.90;99.90;;;;;;4946379;28;36862;-78
2023/03/26 08:35:48;;;;;;;11.30;3.83;;;8.90;99.90;;;;;;4963814;28;40473;-78
2023/03/26 08:38:17;;;;;;;10.37;3.60;;;8.80;99.90;;;;;;4949192;28;37162;-80
2023/03/26 08:41:02;;;;;;;15.50;4.63;;;8.80;99.90;;;;;;4965143;28;39107;-80
2023/03/26 08:43:47;;;;;;;14.00;6.80;;;8.80;99.90;;;;;;4950145;28;47500;-79
2023/03/26 08:46:14;;;;;;;29.50;9.10;;;8.80;99.90;;;;;;4963446;28;37930;-80
2023/03/26 08:49:15;;;;;;;23.27;7.80;;;8.90;99.90;;;;;;4954784;28;39361;-81
2023/03/26 08:52:26;;;;;;;17.87;7.40;;;9.00;99.90;;;;;;4973114;28;47842;-80
2023/03/26 08:55:16;;;;;;;17.27;5.57;;;9.10;99.90;;;;;;4942646;28;49289;-81
2023/03/26 08:58:07;;;;;;;18.90;6.83;;;9.00;99.90;;;;;;4942031;28;48698;-80
2023/03/26 09:00:55;;;;;;;19.30;6.47;;;9.10;99.90;;;;;;4974092;28;49091;-80
2023/03/26 09:03:42;;;;;;;14.70;5.47;;;9.20;99.90;;;;;;4974750;28;38568;-82
2023/03/26 09:06:20;;;;;;;17.27;5.30;;;9.30;99.90;;;;;;4975228;28;38437;-81
2023/03/26 09:09:48;;;;;;;17.07;5.00;;;9.20;99.90;;;;;;4975614;28;37665;-81
2023/03/26 09:12:41;;;;;;;19.13;6.30;;;9.10;99.90;;;;;;4879407;29;47883;-81
2023/03/26 09:15:19;;;;;;;;;;;9.30;99.90;;;;;;4882096;29;38520;-81
2023/03/26 09:18:30;;;;;;;13.90;5.13;;;9.40;99.90;;;;;;4974842;28;38762;-82
2023/03/26 09:20:59;;;;;;;13.53;5.93;;;9.40;99.90;;;;;;4944075;28;48377;-82
2023/03/26 09:23:56;;;;;;;12.17;4.93;;;9.60;99.90;;;;;;4967988;28;38794;-81
2023/03/26 09:26:28;;;;;;;15.60;5.15;;;9.70;99.90;;;;;;4967107;28;38375;-80
2023/03/26 09:29:19;;;;;;;15.68;6.15;;;9.80;99.90;;;;;;4968737;28;36333;-80
2023/03/26 09:32:04;;;;;;;15.13;4.97;;;9.80;99.90;;;;;;4966391;28;47508;-80
2023/03/26 09:34:55;;;;;;;16.20;4.80;;;9.80;99.90;;;;;;4972299;28;48811;-80
2023/03/26 09:37:39;;;;;;;14.15;5.00;;;9.90;99.90;;;;;;4974020;28;38336;-80
2023/03/26 09:40:21;;;;;;;18.98;5.50;;;9.80;99.90;;;;;;4972633;28;38397;-79
2023/03/26 09:49:51;;;;;;;15.05;4.72;;;9.90;99.90;;;;;;5457012;23;20043;-82
2023/03/26 09:52:36;;;;;;;35.05;7.25;;;10.00;99.90;;;;;;4986382;28;37303;-82
2023/03/26 09:55:27;;;;;;;14.10;5.18;;;10.10;99.90;;;;;;4990508;28;39349;-82
2023/03/26 09:58:33;;;;;;;13.90;4.13;;;10.20;99.90;;;;;;4939602;28;47915;-84
2023/03/26 10:01:11;;;;;;;13.13;4.45;;;10.10;99.90;;;;;;4967699;28;47917;-81
2023/03/26 10:03:57;;;;;;;6.85;3.55;;;10.30;99.90;;;;;;4987122;28;46957;-82
2023/03/26 10:06:53;;;;;;;11.13;3.88;;;10.40;99.90;;;;;;4966347;28;37595;-82
2023/03/26 10:09:31;;;;;;;13.80;4.03;;;10.30;99.90;;;;;;4994760;28;39889;-83
2023/03/26 10:12:12;;;;;;;8.00;2.78;;;10.40;99.90;;;;;;4983713;28;38011;-82
2023/03/26 10:15:05;;;;;;;9.88;2.67;;;10.60;99.90;;;;;;4996461;28;48787;-82
2023/03/26 10:17:49;;;;;;;7.78;2.63;;;10.40;99.90;;;;;;4984419;28;47445;-81
2023/03/26 10:20:50;;;;;;;11.20;2.63;;;10.50;99.90;;;;;;4988506;28;38433;-83
2023/03/26 10:23:51;;;;;;;9.60;2.40;;;10.60;99.90;;;;;;4973916;28;37203;-83
2023/03/26 10:29:16;;;;;;;7.90;2.58;;;10.40;99.90;;;;;;4974402;28;20058;-80
2023/03/26 10:31:56;;;;;;;10.93;2.80;;;10.20;99.90;;;;;;4978443;28;47369;-80
2023/03/26 10:34:44;;;;;;;6.90;2.55;;;10.30;99.90;;;;;;4970533;28;37327;-80
2023/03/26 10:37:25;;;;;;;8.73;2.80;;;10.20;99.90;;;;;;4979035;28;36365;-80
2023/03/26 10:40:10;;;;;;;10.02;2.95;;;10.00;99.90;;;;;;4979444;28;37081;-81
2023/03/26 10:43:12;;;;;;;7.30;2.80;;;10.00;99.90;;;;;;5004603;28;48651;-80
2023/03/26 10:45:54;;;;;;;10.00;3.33;;;10.00;99.90;;;;;;4990126;28;47228;-82
2023/03/26 10:48:47;;;;;;;11.55;4.28;;;10.00;99.90;;;;;;4980153;28;38693;-81
2023/03/26 10:51:53;;;;;;;13.82;5.30;;;10.10;99.90;;;;;;4968158;28;38194;-82
2023/03/26 10:54:35;;;;;;;9.65;4.15;;;10.20;99.90;;;;;;4980081;28;37702;-82
2023/03/26 10:57:32;;;;;;;8.20;4.10;;;10.30;99.90;;;;;;5002315;28;38153;-80
2023/03/26 11:00:24;;;;;;;11.35;4.70;;;10.10;99.90;;;;;;5007513;28;49353;-80
2023/03/26 11:03:20;;;;;;;10.23;5.40;;;10.10;99.90;;;;;;4976257;28;48584;-81
2023/03/26 11:06:06;;;;;;;8.27;4.80;;;10.20;99.90;;;;;;4975505;28;48443;-81
2023/03/26 11:08:47;;;;;;;7.43;4.30;;;10.00;99.90;;;;;;4962722;28;48447;-81
2023/03/26 11:11:48;;;;;;;;;;;;;;;;;;;;;
2023/03/26 11:17:54;;;;;;;12.17;6.03;;;9.60;99.90;;;;;;4048286;26;20051;-82
2023/03/26 11:20:34;;;;;;;10.37;6.60;;;9.40;99.90;;;;;;4947081;28;38196;-83
2023/03/26 11:23:03;;;;;;;18.83;7.13;;;9.40;99.90;;;;;;4935309;28;35968;-82
2023/03/26 11:25:44;;;;;;;16.27;6.80;;;9.40;99.90;;;;;;4938526;28;46965;-81
2023/03/26 11:28:35;;;;;;;14.73;8.33;;;9.40;99.90;;;;;;4928101;28;38546;-82
2023/03/26 11:31:26;;;;;;;13.13;6.27;;;9.40;99.90;;;;;;4920378;28;38118;-81
2023/03/26 11:34:05;;;;;;;11.60;5.87;;;9.20;99.90;;;;;;4963003;28;35842;-82
2023/03/26 11:36:41;;;;;;;14.33;5.73;;;9.10;99.90;;;;;;4942218;28;48183;-83
2023/03/26 11:39:14;;;;;;;19.87;5.30;;;9.10;99.90;;;;;;4950917;28;39148;-83
2023/03/26 11:42:13;;;;;;;20.57;7.23;;;9.00;99.90;;;;;;4946060;28;37066;-83
2023/03/26 11:44:57;;;;;;;16.57;5.80;;;9.10;99.90;;;;;;4947025;28;47811;-83
2023/03/26 11:47:35;;;;;;;20.30;5.03;;;8.90;99.90;;;;;;4941324;28;38764;-82
2023/03/26 11:50:17;;;;;;;19.80;5.40;;;9.00;99.90;;;;;;4951866;28;38207;-83
2023/03/26 11:52:43;;;;;;;22.02;5.57;;;9.00;99.90;;;;;;4959868;28;50588;-83
2023/03/26 11:55:16;;;;;;;19.33;5.27;;;9.00;99.90;;;;;;4946592;28;37337;-83
2023/03/26 11:57:54;;;;;;;19.27;4.40;;;9.00;99.90;;;;;;4947076;28;38183;-82
2023/03/26 12:00:30;;;;;;;20.40;4.97;;;9.00;99.90;;;;;;4953768;28;38148;-82
2023/03/26 12:03:03;;;;;;;20.20;5.23;;;9.00;99.90;;;;;;4965635;28;37400;-84
2023/03/26 12:05:48;;;;;;;20.77;5.87;;;9.00;99.90;;;;;;4936783;28;47858;-83
2023/03/26 12:08:27;;;;;;;26.47;5.33;;;9.00;99.90;;;;;;4956019;28;39464;-82
2023/03/26 12:11:09;;;;;;;19.83;5.23;;;9.00;99.90;;;;;;4945481;28;37925;-83
2023/03/26 12:13:41;;;;;;;21.02;6.05;;;9.00;99.90;;;;;;4957180;28;48659;-82
2023/03/26 12:16:14;;;;;;;17.38;4.35;;;9.20;99.90;;;;;;4952697;28;36710;-82
2023/03/26 12:18:42;;;;;;;;;;;9.00;99.90;;;;;;4949264;28;38289;-82
2023/03/26 12:21:12;;;;;;;25.83;5.27;;;9.00;99.90;;;;;;4941475;28;38382;-82
2023/03/26 12:23:57;;;;;;;24.40;5.20;;;8.80;99.90;;;;;;4967074;28;39364;-80
2023/03/26 12:26:40;;;;;;;21.53;5.33;;;8.80;99.90;;;;;;4943780;28;34196;-83
2023/03/26 12:29:16;;;;;;;22.48;4.70;;;8.70;99.90;;;;;;4962812;28;39191;-82
2023/03/26 12:32:06;;;;;;;25.37;4.83;;;8.80;99.90;;;;;;4947654;28;39676;-81
2023/03/26 12:34:36;;;;;;;25.30;5.40;;;8.70;99.90;;;;;;4939172;28;47214;-82
2023/03/26 12:37:05;;;;;;;20.17;4.43;;;8.60;99.90;;;;;;4953084;28;36323;-82
2023/03/26 12:39:42;;;;;;;24.37;4.17;;;8.70;99.90;;;;;;4956750;28;37863;-80
2023/03/26 12:42:37;;;;;;;20.90;4.27;;;8.60;99.90;;;;;;4951787;28;38426;-82
2023/03/26 12:45:12;;;;;;;25.37;5.23;;;8.70;99.90;;;;;;4958809;28;38394;-83
2023/03/26 12:47:42;;;;;;;20.70;3.63;;;8.70;99.90;;;;;;4946887;28;48887;-83
2023/03/26 12:53:26;;;;;;;29.07;5.20;;;9.10;99.90;;;;;;4959651;28;37904;-83
2023/03/26 12:56:18;;;;;;;22.37;4.03;;;9.10;99.90;;;;;;4952603;28;37949;-82
2023/03/26 12:59:20;;;;;;;19.42;4.30;;;9.10;99.90;;;;;;4984010;28;48334;-83
2023/03/26 13:02:13;;;;;;;20.53;3.70;;;9.30;99.90;;;;;;4976056;28;48388;-82
2023/03/26 13:04:55;;;;;;;25.17;4.07;;;9.30;99.90;;;;;;4957511;28;47647;-81
2023/03/26 13:07:50;;;;;;;14.95;3.35;;;9.50;99.90;;;;;;4973585;28;39295;-81
2023/03/26 13:10:36;;;;;;;24.57;4.17;;;9.80;99.90;;;;;;4970837;28;37492;-81
2023/03/26 13:13:23;;;;;;;16.63;3.20;;;10.30;99.90;;;;;;4952236;28;39020;-82
2023/03/26 13:16:23;;;;;;;15.10;3.40;;;10.00;99.90;;;;;;4981397;28;39799;-80
2023/03/26 13:19:21;;;;;;;19.50;3.90;;;10.00;99.90;;;;;;4975262;28;48822;-81
2023/03/26 13:22:05;;;;;;;18.38;3.25;;;9.90;99.90;;;;;;4957924;28;47580;-79
2023/03/26 13:24:43;;;;;;;13.25;3.08;;;9.80;99.90;;;;;;4967879;28;48722;-84
2023/03/26 13:46:28;;;;;;;20.02;2.70;;;10.20;99.90;;;;;;5338758;23;20031;-80
2023/03/26 13:49:00;;;;;;;10.20;2.50;;;10.10;99.90;;;;;;4861510;29;47132;-81
2023/03/26 13:52:00;;;;;;;;;;;;;;;;;;;;;
2023/03/26 13:54:54;;;;;;;13.40;2.73;;;10.10;99.90;;;;;;4905106;29;38216;-82
2023/03/26 13:57:34;;;;;;;18.07;2.83;;;10.00;99.90;;;;;;4913745;28;37425;-80
2023/03/26 14:00:22;;;;;;;13.73;2.50;;;10.00;99.90;;;;;;4945061;28;38174;-81
2023/03/26 14:02:58;;;;;;;15.60;3.07;;;10.30;99.90;;;;;;4926379;28;46943;-81
2023/03/26 14:05:35;;;;;;;10.40;3.07;;;10.40;99.90;;;;;;4911970;28;37092;-81